sensor_id;sensor_type;location;lat;lon;timestamp;P1;P2;P0
44871;PMS7003;30602;51.060;17.226;2023-02-01T00:00:15;2;0;0
44871;PMS7003;30602;51.060;17.226;2023-02-01T00:03:25;3;2;1
44871;PMS7003;30602;51.060;17.226;2023-02-01T00:06:34;2;1;1
44871;PMS7003;30602;51.060;17.226;2023-02-01T00:09:57;1;0;0
44871;PMS7003;30602;51.060;17.226;2023-02-01T00:13:28;0;0;0
44871;PMS7003;30602;51.060;17.226;2023-02-01T00:16:40;2;0;0
44871;PMS7003;30602;51.060;17.226;2023-02-01T00:19:55;1;1;0
44871;PMS7003;30602;51.060;17.226;2023-02-01T00:23:10;0;0;0
44871;PMS7003;30602;51.060;17.226;2023-02-01T00:29:42;0;0;0
44871;PMS7003;30602;51.060;17.226;2023-02-01T00:32:51;0;0;0
44871;PMS7003;30602;51.060;17.226;2023-02-01T00:36:01;1;0;0
44871;PMS7003;30602;51.060;17.226;2023-02-01T00:39:11;0;0;0
44871;PMS7003;30602;51.060;17.226;2023-02-01T00:42:20;0;0;0
44871;PMS7003;30602;51.060;17.226;2023-02-01T00:45:35;1;0;0
44871;PMS7003;30602;51.060;17.226;2023-02-01T00:48:45;0;0;0
44871;PMS7003;30602;51.060;17.226;2023-02-01T00:51:57;0;0;0
44871;PMS7003;30602;51.060;17.226;2023-02-01T00:55:05;0;0;0
44871;PMS7003;30602;51.060;17.226;2023-02-01T00:58:14;1;0;0
44871;PMS7003;30602;51.060;17.226;2023-02-01T01:01:35;0;0;0
44871;PMS7003;30602;51.060;17.226;2023-02-01T01:04:43;0;0;0
44871;PMS7003;30602;51.060;17.226;2023-02-01T01:08:05;0;0;0
44871;PMS7003;30602;51.060;17.226;2023-02-01T01:11:17;0;0;0
44871;PMS7003;30602;51.060;17.226;2023-02-01T01:14:51;0;0;0
44871;PMS7003;30602;51.060;17.226;2023-02-01T01:18:12;0;0;0
44871;PMS7003;30602;51.060;17.226;2023-02-01T01:21:18;0;0;0
44871;PMS7003;30602;51.060;17.226;2023-02-01T01:24:26;1;0;0
44871;PMS7003;30602;51.060;17.226;2023-02-01T01:27:36;1;1;0
44871;PMS7003;30602;51.060;17.226;2023-02-01T01:35:17;1;0;0
44871;PMS7003;30602;51.060;17.226;2023-02-01T01:38:26;0;0;0
44871;PMS7003;30602;51.060;17.226;2023-02-01T01:42:24;0;0;0
44871;PMS7003;30602;51.060;17.226;2023-02-01T01:45:33;1;1;0
44871;PMS7003;30602;51.060;17.226;2023-02-01T01:48:41;2;0;0
44871;PMS7003;30602;51.060;17.226;2023-02-01T01:52:33;2;0;0
44871;PMS7003;30602;51.060;17.226;2023-02-01T01:55:52;1;0;0
44871;PMS7003;30602;51.060;17.226;2023-02-01T01:59:35;2;0;0
44871;PMS7003;30602;51.060;17.226;2023-02-01T02:03:19;0;0;0
44871;PMS7003;30602;51.060;17.226;2023-02-01T02:07:05;0;0;0
44871;PMS7003;30602;51.060;17.226;2023-02-01T02:10:28;0;0;0
44871;PMS7003;30602;51.060;17.226;2023-02-01T02:14:21;1;0;0
44871;PMS7003;30602;51.060;17.226;2023-02-01T02:18:05;0;0;0
44871;PMS7003;30602;51.060;17.226;2023-02-01T02:25:52;0;0;0
44871;PMS7003;30602;51.060;17.226;2023-02-01T02:37:04;1;1;1
44871;PMS7003;30602;51.060;17.226;2023-02-01T02:45:32;3;1;0
44871;PMS7003;30602;51.060;17.226;2023-02-01T02:48:47;2;2;1
44871;PMS7003;30602;51.060;17.226;2023-02-01T02:52:15;2;0;0
44871;PMS7003;30602;51.060;17.226;2023-02-01T02:56:09;1;1;1
44871;PMS7003;30602;51.060;17.226;2023-02-01T02:59:32;4;1;1
44871;PMS7003;30602;51.060;17.226;2023-02-01T03:02:53;3;2;1
44871;PMS7003;30602;51.060;17.226;2023-02-01T03:06:24;1;1;1
44871;PMS7003;30602;51.060;17.226;2023-02-01T03:09:45;3;1;1
44871;PMS7003;30602;51.060;17.226;2023-02-01T03:12:54;4;1;0
44871;PMS7003;30602;51.060;17.226;2023-02-01T03:19:53;0;0;0
44871;PMS7003;30602;51.060;17.226;2023-02-01T03:23:10;0;0;0
44871;PMS7003;30602;51.060;17.226;2023-02-01T03:26:41;5;0;0
44871;PMS7003;30602;51.060;17.226;2023-02-01T03:33:46;1;1;1
44871;PMS7003;30602;51.060;17.226;2023-02-01T03:37:12;0;0;0
44871;PMS7003;30602;51.060;17.226;2023-02-01T03:44:43;1;1;0
44871;PMS7003;30602;51.060;17.226;2023-02-01T03:48:07;3;3;2
44871;PMS7003;30602;51.060;17.226;2023-02-01T03:51:18;1;1;1
44871;PMS7003;30602;51.060;17.226;2023-02-01T03:54:32;4;1;0
44871;PMS7003;30602;51.060;17.226;2023-02-01T03:57:59;2;1;1
44871;PMS7003;30602;51.060;17.226;2023-02-01T04:01:17;0;0;0
44871;PMS7003;30602;51.060;17.226;2023-02-01T04:04:51;2;1;0
44871;PMS7003;30602;51.060;17.226;2023-02-01T04:08:23;1;1;0
44871;PMS7003;30602;51.060;17.226;2023-02-01T04:11:33;2;0;0
44871;PMS7003;30602;51.060;17.226;2023-02-01T04:15:08;1;0;0
44871;PMS7003;30602;51.060;17.226;2023-02-01T04:18:47;1;1;0
44871;PMS7003;30602;51.060;17.226;2023-02-01T04:22:15;2;1;0
44871;PMS7003;30602;51.060;17.226;2023-02-01T04:25:24;3;2;1
44871;PMS7003;30602;51.060;17.226;2023-02-01T04:28:32;1;1;0
44871;PMS7003;30602;51.060;17.226;2023-02-01T04:32:07;1;1;1
44871;PMS7003;30602;51.060;17.226;2023-02-01T04:35:30;1;1;1
44871;PMS7003;30602;51.060;17.226;2023-02-01T04:38:38;1;1;1
44871;PMS7003;30602;51.060;17.226;2023-02-01T04:41:50;0;0;0
44871;PMS7003;30602;51.060;17.226;2023-02-01T04:45:00;4;1;1
44871;PMS7003;30602;51.060;17.226;2023-02-01T04:48:20;2;1;0
44871;PMS7003;30602;51.060;17.226;2023-02-01T04:51:49;3;2;1
44871;PMS7003;30602;51.060;17.226;2023-02-01T04:55:00;1;1;1
44871;PMS7003;30602;51.060;17.226;2023-02-01T04:58:12;2;1;1
44871;PMS7003;30602;51.060;17.226;2023-02-01T05:01:24;3;1;1
44871;PMS7003;30602;51.060;17.226;2023-02-01T05:04:36;2;1;1
44871;PMS7003;30602;51.060;17.226;2023-02-01T05:07:48;1;1;1
44871;PMS7003;30602;51.060;17.226;2023-02-01T05:11:00;1;1;1
44871;PMS7003;30602;51.060;17.226;2023-02-01T05:14:12;3;1;1
44871;PMS7003;30602;51.060;17.226;2023-02-01T05:17:35;2;1;1
44871;PMS7003;30602;51.060;17.226;2023-02-01T05:20:48;1;1;0
44871;PMS7003;30602;51.060;17.226;2023-02-01T05:24:00;4;1;1
44871;PMS7003;30602;51.060;17.226;2023-02-01T05:27:18;2;1;1
44871;PMS7003;30602;51.060;17.226;2023-02-01T05:30:28;4;2;1
44871;PMS7003;30602;51.060;17.226;2023-02-01T05:34:02;3;2;1
44871;PMS7003;30602;51.060;17.226;2023-02-01T05:37:33;2;2;1
44871;PMS7003;30602;51.060;17.226;2023-02-01T05:40:43;2;2;1
44871;PMS7003;30602;51.060;17.226;2023-02-01T05:43:59;2;2;1
44871;PMS7003;30602;51.060;17.226;2023-02-01T05:47:30;3;1;1
44871;PMS7003;30602;51.060;17.226;2023-02-01T05:50:38;3;1;1
44871;PMS7003;30602;51.060;17.226;2023-02-01T05:54:05;4;2;1
44871;PMS7003;30602;51.060;17.226;2023-02-01T05:57:33;2;2;1
44871;PMS7003;30602;51.060;17.226;2023-02-01T06:00:44;2;2;1
44871;PMS7003;30602;51.060;17.226;2023-02-01T06:03:55;4;3;3
44871;PMS7003;30602;51.060;17.226;2023-02-01T06:07:24;7;3;2
44871;PMS7003;30602;51.060;17.226;2023-02-01T06:10:37;4;3;2
44871;PMS7003;30602;51.060;17.226;2023-02-01T06:13:46;4;3;3
44871;PMS7003;30602;51.060;17.226;2023-02-01T06:16:57;7;7;5
44871;PMS7003;30602;51.060;17.226;2023-02-01T06:20:06;4;4;4
44871;PMS7003;30602;51.060;17.226;2023-02-01T06:24:05;9;8;6
44871;PMS7003;30602;51.060;17.226;2023-02-01T06:27:13;6;5;4
44871;PMS7003;30602;51.060;17.226;2023-02-01T06:30:24;12;10;7
44871;PMS7003;30602;51.060;17.226;2023-02-01T06:34:04;8;4;3
44871;PMS7003;30602;51.060;17.226;2023-02-01T06:38:05;15;9;8
44871;PMS7003;30602;51.060;17.226;2023-02-01T06:41:31;6;5;4
44871;PMS7003;30602;51.060;17.226;2023-02-01T06:44:42;4;4;3
44871;PMS7003;30602;51.060;17.226;2023-02-01T06:47:53;2;2;2
44871;PMS7003;30602;51.060;17.226;2023-02-01T06:54:41;7;7;6
44871;PMS7003;30602;51.060;17.226;2023-02-01T06:58:15;10;8;6
44871;PMS7003;30602;51.060;17.226;2023-02-01T07:01:23;6;5;4
44871;PMS7003;30602;51.060;17.226;2023-02-01T07:04:55;4;3;2
44871;PMS7003;30602;51.060;17.226;2023-02-01T07:08:04;3;2;1
44871;PMS7003;30602;51.060;17.226;2023-02-01T07:11:45;2;1;1
44871;PMS7003;30602;51.060;17.226;2023-02-01T07:14:58;4;3;2
44871;PMS7003;30602;51.060;17.226;2023-02-01T07:18:34;6;3;2
44871;PMS7003;30602;51.060;17.226;2023-02-01T07:21:54;2;1;1
44871;PMS7003;30602;51.060;17.226;2023-02-01T07:25:36;4;1;1
44871;PMS7003;30602;51.060;17.226;2023-02-01T07:28:56;2;2;1
44871;PMS7003;30602;51.060;17.226;2023-02-01T07:32:06;3;1;1
44871;PMS7003;30602;51.060;17.226;2023-02-01T07:35:17;2;1;0
44871;PMS7003;30602;51.060;17.226;2023-02-01T07:38:29;4;2;2
44871;PMS7003;30602;51.060;17.226;2023-02-01T07:41:59;4;3;3
44871;PMS7003;30602;51.060;17.226;2023-02-01T07:45:11;3;3;3
44871;PMS7003;30602;51.060;17.226;2023-02-01T07:48:22;2;2;1
44871;PMS7003;30602;51.060;17.226;2023-02-01T07:51:57;4;3;2
44871;PMS7003;30602;51.060;17.226;2023-02-01T07:55:05;3;2;1
44871;PMS7003;30602;51.060;17.226;2023-02-01T07:58:14;6;3;3
44871;PMS7003;30602;51.060;17.226;2023-02-01T08:01:23;5;3;3
44871;PMS7003;30602;51.060;17.226;2023-02-01T08:04:43;3;3;2
44871;PMS7003;30602;51.060;17.226;2023-02-01T08:08:20;2;2;2
44871;PMS7003;30602;51.060;17.226;2023-02-01T08:11:32;4;4;2
44871;PMS7003;30602;51.060;17.226;2023-02-01T08:14:48;5;4;3
44871;PMS7003;30602;51.060;17.226;2023-02-01T08:17:54;3;2;2
44871;PMS7003;30602;51.060;17.226;2023-02-01T08:21:34;3;3;1
44871;PMS7003;30602;51.060;17.226;2023-02-01T08:24:49;2;2;1
44871;PMS7003;30602;51.060;17.226;2023-02-01T08:28:06;5;3;3
44871;PMS7003;30602;51.060;17.226;2023-02-01T08:31:57;5;3;3
44871;PMS7003;30602;51.060;17.226;2023-02-01T08:35:08;7;5;4
44871;PMS7003;30602;51.060;17.226;2023-02-01T08:38:18;3;3;3
44871;PMS7003;30602;51.060;17.226;2023-02-01T08:41:38;4;4;3
44871;PMS7003;30602;51.060;17.226;2023-02-01T08:44:53;3;2;1
44871;PMS7003;30602;51.060;17.226;2023-02-01T08:48:05;2;2;1
44871;PMS7003;30602;51.060;17.226;2023-02-01T08:51:56;19;11;8
44871;PMS7003;30602;51.060;17.226;2023-02-01T08:55:53;10;7;5
44871;PMS7003;30602;51.060;17.226;2023-02-01T08:59:01;4;4;3
44871;PMS7003;30602;51.060;17.226;2023-02-01T09:02:16;5;5;3
44871;PMS7003;30602;51.060;17.226;2023-02-01T09:05:25;3;3;2
44871;PMS7003;30602;51.060;17.226;2023-02-01T09:08:38;4;4;3
44871;PMS7003;30602;51.060;17.226;2023-02-01T09:11:51;7;4;3
44871;PMS7003;30602;51.060;17.226;2023-02-01T09:15:02;7;5;4
44871;PMS7003;30602;51.060;17.226;2023-02-01T09:18:14;5;4;3
44871;PMS7003;30602;51.060;17.226;2023-02-01T09:21:57;11;9;7
44871;PMS7003;30602;51.060;17.226;2023-02-01T09:25:08;5;3;2
44871;PMS7003;30602;51.060;17.226;2023-02-01T09:29:10;5;4;3
44871;PMS7003;30602;51.060;17.226;2023-02-01T09:32:21;4;4;3
44871;PMS7003;30602;51.060;17.226;2023-02-01T09:35:33;4;4;3
44871;PMS7003;30602;51.060;17.226;2023-02-01T09:39:19;8;6;5
44871;PMS7003;30602;51.060;17.226;2023-02-01T09:46:46;9;9;6
44871;PMS7003;30602;51.060;17.226;2023-02-01T09:50:23;4;4;3
44871;PMS7003;30602;51.060;17.226;2023-02-01T09:53:43;6;5;3
44871;PMS7003;30602;51.060;17.226;2023-02-01T10:00:51;4;4;2
44871;PMS7003;30602;51.060;17.226;2023-02-01T10:04:16;5;5;3
44871;PMS7003;30602;51.060;17.226;2023-02-01T10:22:52;5;3;3
44871;PMS7003;30602;51.060;17.226;2023-02-01T10:26:12;6;5;3
44871;PMS7003;30602;51.060;17.226;2023-02-01T10:29:37;5;3;2
44871;PMS7003;30602;51.060;17.226;2023-02-01T10:36:41;10;8;6
44871;PMS7003;30602;51.060;17.226;2023-02-01T10:40:20;4;4;3
44871;PMS7003;30602;51.060;17.226;2023-02-01T10:43:33;3;3;2
44871;PMS7003;30602;51.060;17.226;2023-02-01T10:46:48;6;5;4
44871;PMS7003;30602;51.060;17.226;2023-02-01T10:53:48;6;4;4
44871;PMS7003;30602;51.060;17.226;2023-02-01T11:00:26;7;6;4
44871;PMS7003;30602;51.060;17.226;2023-02-01T11:03:43;11;9;6
44871;PMS7003;30602;51.060;17.226;2023-02-01T11:14:12;6;6;5
44871;PMS7003;30602;51.060;17.226;2023-02-01T11:17:23;5;5;3
44871;PMS7003;30602;51.060;17.226;2023-02-01T11:20:40;6;5;3
44871;PMS7003;30602;51.060;17.226;2023-02-01T11:23:50;12;10;7
44871;PMS7003;30602;51.060;17.226;2023-02-01T11:27:21;10;8;6
44871;PMS7003;30602;51.060;17.226;2023-02-01T11:30:36;4;4;3
44871;PMS7003;30602;51.060;17.226;2023-02-01T11:33:52;5;4;3
44871;PMS7003;30602;51.060;17.226;2023-02-01T11:37:38;4;3;1
44871;PMS7003;30602;51.060;17.226;2023-02-01T11:40:50;6;6;5
44871;PMS7003;30602;51.060;17.226;2023-02-01T11:44:44;4;3;3
44871;PMS7003;30602;51.060;17.226;2023-02-01T11:48:15;8;6;4
44871;PMS7003;30602;51.060;17.226;2023-02-01T11:55:14;15;12;9
44871;PMS7003;30602;51.060;17.226;2023-02-01T12:02:01;6;5;4
44871;PMS7003;30602;51.060;17.226;2023-02-01T12:05:37;8;7;6
44871;PMS7003;30602;51.060;17.226;2023-02-01T12:09:08;11;10;8
44871;PMS7003;30602;51.060;17.226;2023-02-01T12:24:05;8;8;7
44871;PMS7003;30602;51.060;17.226;2023-02-01T12:51:23;3;3;3
44871;PMS7003;30602;51.060;17.226;2023-02-01T12:54:37;5;5;3
44871;PMS7003;30602;51.060;17.226;2023-02-01T12:58:03;6;6;5
44871;PMS7003;30602;51.060;17.226;2023-02-01T13:01:26;9;7;6
44871;PMS7003;30602;51.060;17.226;2023-02-01T13:08:10;3;2;2
44871;PMS7003;30602;51.060;17.226;2023-02-01T13:15:16;5;5;4
44871;PMS7003;30602;51.060;17.226;2023-02-01T13:18:36;4;4;3
44871;PMS7003;30602;51.060;17.226;2023-02-01T13:22:11;3;3;2
44871;PMS7003;30602;51.060;17.226;2023-02-01T13:25:50;4;4;3
44871;PMS7003;30602;51.060;17.226;2023-02-01T13:28:59;4;3;2
44871;PMS7003;30602;51.060;17.226;2023-02-01T13:36:19;8;6;5
44871;PMS7003;30602;51.060;17.226;2023-02-01T13:43:46;8;3;2
44871;PMS7003;30602;51.060;17.226;2023-02-01T13:47:26;8;7;5
44871;PMS7003;30602;51.060;17.226;2023-02-01T13:50:43;7;5;4
44871;PMS7003;30602;51.060;17.226;2023-02-01T14:01:33;16;15;9
44871;PMS7003;30602;51.060;17.226;2023-02-01T14:05:12;16;16;11
44871;PMS7003;30602;51.060;17.226;2023-02-01T14:11:52;10;5;4
44871;PMS7003;30602;51.060;17.226;2023-02-01T14:15:24;3;2;2
44871;PMS7003;30602;51.060;17.226;2023-02-01T14:19:00;7;6;5
44871;PMS7003;30602;51.060;17.226;2023-02-01T14:25:32;14;12;8
44871;PMS7003;30602;51.060;17.226;2023-02-01T14:28:51;4;4;2
44871;PMS7003;30602;51.060;17.226;2023-02-01T14:32:35;6;5;4
44871;PMS7003;30602;51.060;17.226;2023-02-01T14:39:19;12;11;6
44871;PMS7003;30602;51.060;17.226;2023-02-01T14:46:02;4;3;3
44871;PMS7003;30602;51.060;17.226;2023-02-01T14:49:13;5;3;2
44871;PMS7003;30602;51.060;17.226;2023-02-01T14:52:38;7;7;6
44871;PMS7003;30602;51.060;17.226;2023-02-01T14:59:16;8;5;4
44871;PMS7003;30602;51.060;17.226;2023-02-01T15:02:30;11;9;5
44871;PMS7003;30602;51.060;17.226;2023-02-01T15:06:14;12;11;6
44871;PMS7003;30602;51.060;17.226;2023-02-01T15:12:54;10;8;7
44871;PMS7003;30602;51.060;17.226;2023-02-01T15:16:26;11;10;5
44871;PMS7003;30602;51.060;17.226;2023-02-01T15:19:54;11;9;6
44871;PMS7003;30602;51.060;17.226;2023-02-01T15:23:05;7;4;3
44871;PMS7003;30602;51.060;17.226;2023-02-01T15:26:29;7;5;4
44871;PMS7003;30602;51.060;17.226;2023-02-01T15:29:41;3;2;2
44871;PMS7003;30602;51.060;17.226;2023-02-01T15:36:18;10;5;4
44871;PMS7003;30602;51.060;17.226;2023-02-01T15:39:31;3;3;3
44871;PMS7003;30602;51.060;17.226;2023-02-01T15:43:04;7;6;4
44871;PMS7003;30602;51.060;17.226;2023-02-01T15:50:12;9;8;6
44871;PMS7003;30602;51.060;17.226;2023-02-01T15:53:56;7;7;6
44871;PMS7003;30602;51.060;17.226;2023-02-01T15:57:33;8;7;6
44871;PMS7003;30602;51.060;17.226;2023-02-01T16:06:46;14;13;8
44871;PMS7003;30602;51.060;17.226;2023-02-01T16:10:25;12;11;8
44871;PMS7003;30602;51.060;17.226;2023-02-01T16:13:36;12;9;7
44871;PMS7003;30602;51.060;17.226;2023-02-01T16:16:47;11;9;7
44871;PMS7003;30602;51.060;17.226;2023-02-01T16:19:58;9;8;7
44871;PMS7003;30602;51.060;17.226;2023-02-01T16:23:09;4;4;3
44871;PMS7003;30602;51.060;17.226;2023-02-01T16:26:55;4;4;4
44871;PMS7003;30602;51.060;17.226;2023-02-01T16:30:25;5;5;4
44871;PMS7003;30602;51.060;17.226;2023-02-01T16:33:36;16;13;10
44871;PMS7003;30602;51.060;17.226;2023-02-01T16:36:44;6;6;5
44871;PMS7003;30602;51.060;17.226;2023-02-01T16:40:02;7;6;6
44871;PMS7003;30602;51.060;17.226;2023-02-01T16:43:14;9;7;5
44871;PMS7003;30602;51.060;17.226;2023-02-01T16:46:29;4;4;4
44871;PMS7003;30602;51.060;17.226;2023-02-01T16:49:43;14;12;8
44871;PMS7003;30602;51.060;17.226;2023-02-01T16:53:18;12;11;9
44871;PMS7003;30602;51.060;17.226;2023-02-01T16:56:25;10;9;7
44871;PMS7003;30602;51.060;17.226;2023-02-01T16:59:57;9;9;8
44871;PMS7003;30602;51.060;17.226;2023-02-01T17:03:11;14;12;7
44871;PMS7003;30602;51.060;17.226;2023-02-01T17:06:24;13;10;8
44871;PMS7003;30602;51.060;17.226;2023-02-01T17:09:35;12;10;8
44871;PMS7003;30602;51.060;17.226;2023-02-01T17:13:13;16;14;11
44871;PMS7003;30602;51.060;17.226;2023-02-01T17:16:26;12;11;8
44871;PMS7003;30602;51.060;17.226;2023-02-01T17:19:48;13;8;6
44871;PMS7003;30602;51.060;17.226;2023-02-01T17:23:01;9;8;6
44871;PMS7003;30602;51.060;17.226;2023-02-01T17:26:25;8;6;5
44871;PMS7003;30602;51.060;17.226;2023-02-01T17:29:39;10;6;5
44871;PMS7003;30602;51.060;17.226;2023-02-01T17:33:26;9;8;6
44871;PMS7003;30602;51.060;17.226;2023-02-01T17:36:41;13;10;8
44871;PMS7003;30602;51.060;17.226;2023-02-01T17:39:56;10;8;7
44871;PMS7003;30602;51.060;17.226;2023-02-01T17:43:04;8;6;6
44871;PMS7003;30602;51.060;17.226;2023-02-01T17:46:20;14;11;7
44871;PMS7003;30602;51.060;17.226;2023-02-01T17:49:37;18;15;10
44871;PMS7003;30602;51.060;17.226;2023-02-01T17:52:48;15;14;8
44871;PMS7003;30602;51.060;17.226;2023-02-01T17:56:01;37;30;18
44871;PMS7003;30602;51.060;17.226;2023-02-01T17:59:27;40;36;22
44871;PMS7003;30602;51.060;17.226;2023-02-01T18:02:58;22;19;15
44871;PMS7003;30602;51.060;17.226;2023-02-01T18:09:23;16;15;11
44871;PMS7003;30602;51.060;17.226;2023-02-01T18:12:31;21;15;10
44871;PMS7003;30602;51.060;17.226;2023-02-01T18:15:41;28;23;15
44871;PMS7003;30602;51.060;17.226;2023-02-01T18:18:49;27;24;15
44871;PMS7003;30602;51.060;17.226;2023-02-01T18:21:58;19;16;12
44871;PMS7003;30602;51.060;17.226;2023-02-01T18:25:19;13;11;8
44871;PMS7003;30602;51.060;17.226;2023-02-01T18:28:30;9;9;6
44871;PMS7003;30602;51.060;17.226;2023-02-01T18:31:44;8;8;6
44871;PMS7003;30602;51.060;17.226;2023-02-01T18:35:23;12;9;6
44871;PMS7003;30602;51.060;17.226;2023-02-01T18:38:36;14;13;10
44871;PMS7003;30602;51.060;17.226;2023-02-01T18:41:57;19;16;13
44871;PMS7003;30602;51.060;17.226;2023-02-01T18:45:19;14;13;10
44871;PMS7003;30602;51.060;17.226;2023-02-01T18:48:27;15;14;8
44871;PMS7003;30602;51.060;17.226;2023-02-01T18:51:38;15;12;7
44871;PMS7003;30602;51.060;17.226;2023-02-01T18:55:00;30;23;14
44871;PMS7003;30602;51.060;17.226;2023-02-01T18:58:36;15;10;6
44871;PMS7003;30602;51.060;17.226;2023-02-01T19:01:48;6;4;2
44871;PMS7003;30602;51.060;17.226;2023-02-01T19:05:30;5;3;1
44871;PMS7003;30602;51.060;17.226;2023-02-01T19:09:05;8;8;6
44871;PMS7003;30602;51.060;17.226;2023-02-01T19:12:27;11;10;8
44871;PMS7003;30602;51.060;17.226;2023-02-01T19:15:38;4;4;4
44871;PMS7003;30602;51.060;17.226;2023-02-01T19:18:50;7;6;5
44871;PMS7003;30602;51.060;17.226;2023-02-01T19:21:58;8;6;4
44871;PMS7003;30602;51.060;17.226;2023-02-01T19:25:21;7;5;4
44871;PMS7003;30602;51.060;17.226;2023-02-01T19:28:42;9;7;4
44871;PMS7003;30602;51.060;17.226;2023-02-01T19:31:53;10;8;5
44871;PMS7003;30602;51.060;17.226;2023-02-01T19:35:39;10;8;6
44871;PMS7003;30602;51.060;17.226;2023-02-01T19:38:47;16;12;8
44871;PMS7003;30602;51.060;17.226;2023-02-01T19:41:56;17;14;8
44871;PMS7003;30602;51.060;17.226;2023-02-01T19:45:05;8;8;5
44871;PMS7003;30602;51.060;17.226;2023-02-01T19:48:16;12;7;5
44871;PMS7003;30602;51.060;17.226;2023-02-01T19:51:29;8;8;5
44871;PMS7003;30602;51.060;17.226;2023-02-01T19:54:37;15;13;7
44871;PMS7003;30602;51.060;17.226;2023-02-01T19:57:46;17;14;10
44871;PMS7003;30602;51.060;17.226;2023-02-01T20:00:55;13;12;9
44871;PMS7003;30602;51.060;17.226;2023-02-01T20:04:06;7;4;3
44871;PMS7003;30602;51.060;17.226;2023-02-01T20:07:32;8;8;6
44871;PMS7003;30602;51.060;17.226;2023-02-01T20:10:42;7;5;4
44871;PMS7003;30602;51.060;17.226;2023-02-01T20:13:50;4;3;3
44871;PMS7003;30602;51.060;17.226;2023-02-01T20:17:35;8;5;3
44871;PMS7003;30602;51.060;17.226;2023-02-01T20:20:46;4;3;2
44871;PMS7003;30602;51.060;17.226;2023-02-01T20:24:44;3;2;2
44871;PMS7003;30602;51.060;17.226;2023-02-01T20:28:26;2;2;1
44871;PMS7003;30602;51.060;17.226;2023-02-01T20:31:34;3;3;1
44871;PMS7003;30602;51.060;17.226;2023-02-01T20:35:07;4;2;1
44871;PMS7003;30602;51.060;17.226;2023-02-01T20:38:47;4;3;2
44871;PMS7003;30602;51.060;17.226;2023-02-01T20:42:27;0;0;0
44871;PMS7003;30602;51.060;17.226;2023-02-01T20:46:28;5;3;3
44871;PMS7003;30602;51.060;17.226;2023-02-01T20:49:37;4;3;2
44871;PMS7003;30602;51.060;17.226;2023-02-01T20:53:09;2;2;1
44871;PMS7003;30602;51.060;17.226;2023-02-01T20:56:17;3;3;2
44871;PMS7003;30602;51.060;17.226;2023-02-01T21:00:18;4;4;3
44871;PMS7003;30602;51.060;17.226;2023-02-01T21:04:14;7;3;2
44871;PMS7003;30602;51.060;17.226;2023-02-01T21:07:27;5;5;4
44871;PMS7003;30602;51.060;17.226;2023-02-01T21:11:10;10;6;4
44871;PMS7003;30602;51.060;17.226;2023-02-01T21:14:43;9;8;6
44871;PMS7003;30602;51.060;17.226;2023-02-01T21:17:53;8;3;2
44871;PMS7003;30602;51.060;17.226;2023-02-01T21:21:23;9;7;5
44871;PMS7003;30602;51.060;17.226;2023-02-01T21:24:32;14;9;6
44871;PMS7003;30602;51.060;17.226;2023-02-01T21:27:44;17;14;9
44871;PMS7003;30602;51.060;17.226;2023-02-01T21:30:58;21;16;10
44871;PMS7003;30602;51.060;17.226;2023-02-01T21:34:06;9;7;6
44871;PMS7003;30602;51.060;17.226;2023-02-01T21:37:15;15;15;9
44871;PMS7003;30602;51.060;17.226;2023-02-01T21:40:26;14;8;5
44871;PMS7003;30602;51.060;17.226;2023-02-01T21:43:33;12;11;8
44871;PMS7003;30602;51.060;17.226;2023-02-01T21:47:08;7;5;4
44871;PMS7003;30602;51.060;17.226;2023-02-01T21:50:39;5;5;3
44871;PMS7003;30602;51.060;17.226;2023-02-01T21:54:14;4;3;3
44871;PMS7003;30602;51.060;17.226;2023-02-01T21:57:22;8;7;5
44871;PMS7003;30602;51.060;17.226;2023-02-01T22:00:56;8;5;4
44871;PMS7003;30602;51.060;17.226;2023-02-01T22:04:09;16;13;9
44871;PMS7003;30602;51.060;17.226;2023-02-01T22:07:17;3;3;2
44871;PMS7003;30602;51.060;17.226;2023-02-01T22:10:25;18;14;9
44871;PMS7003;30602;51.060;17.226;2023-02-01T22:13:36;14;13;11
44871;PMS7003;30602;51.060;17.226;2023-02-01T22:17:10;6;5;5
44871;PMS7003;30602;51.060;17.226;2023-02-01T22:20:56;4;4;3
44871;PMS7003;30602;51.060;17.226;2023-02-01T22:24:02;7;6;4
44871;PMS7003;30602;51.060;17.226;2023-02-01T22:28:03;10;6;5
44871;PMS7003;30602;51.060;17.226;2023-02-01T22:31:12;5;5;3
44871;PMS7003;30602;51.060;17.226;2023-02-01T22:35:07;6;6;3
44871;PMS7003;30602;51.060;17.226;2023-02-01T22:38:38;7;5;4
44871;PMS7003;30602;51.060;17.226;2023-02-01T22:41:47;5;5;3
44871;PMS7003;30602;51.060;17.226;2023-02-01T22:44:57;6;5;4
44871;PMS7003;30602;51.060;17.226;2023-02-01T22:48:09;21;17;11
44871;PMS7003;30602;51.060;17.226;2023-02-01T22:52:17;19;12;8
44871;PMS7003;30602;51.060;17.226;2023-02-01T22:55:30;31;24;14
44871;PMS7003;30602;51.060;17.226;2023-02-01T22:58:41;34;27;15
44871;PMS7003;30602;51.060;17.226;2023-02-01T23:01:52;23;17;10
44871;PMS7003;30602;51.060;17.226;2023-02-01T23:05:29;41;30;18
44871;PMS7003;30602;51.060;17.226;2023-02-01T23:12:24;24;21;11
44871;PMS7003;30602;51.060;17.226;2023-02-01T23:15:37;12;11;8
44871;PMS7003;30602;51.060;17.226;2023-02-01T23:18:48;12;9;6
44871;PMS7003;30602;51.060;17.226;2023-02-01T23:22:18;12;9;8
44871;PMS7003;30602;51.060;17.226;2023-02-01T23:25:57;9;8;6
44871;PMS7003;30602;51.060;17.226;2023-02-01T23:29:10;10;8;6
44871;PMS7003;30602;51.060;17.226;2023-02-01T23:32:36;7;3;2
44871;PMS7003;30602;51.060;17.226;2023-02-01T23:35:52;6;5;3
44871;PMS7003;30602;51.060;17.226;2023-02-01T23:39:04;6;6;4
44871;PMS7003;30602;51.060;17.226;2023-02-01T23:42:14;6;5;3
44871;PMS7003;30602;51.060;17.226;2023-02-01T23:45:26;3;2;2
44871;PMS7003;30602;51.060;17.226;2023-02-01T23:48:47;4;3;2
44871;PMS7003;30602;51.060;17.226;2023-02-01T23:51:59;9;2;2
44871;PMS7003;30602;51.060;17.226;2023-02-01T23:55:32;3;3;2
44871;PMS7003;30602;51.060;17.226;2023-02-01T23:59:06;3;1;1
